Time;durP1;ratioP1;P1;durP2;ratioP2;P2;SDS_P1;SDS_P2;PMS_P1;PMS_P2;Temp;Humidity;BMP_temperature;BMP_pressure;BME280_temperature;BME280_humidity;BME280_pressure;Samples;Min_cycle;Max_cycle;Signal;HPM_P1;HPM_P2
2022/07/15 00:00:16;;;;;;;2.40;1.40;;;24.30;99.90;;;;;;4060787;29;20224;-79
2022/07/15 00:02:18;;;;;;;3.03;1.70;;;24.30;99.90;;;;;;4054088;29;20268;-79
2022/07/15 00:04:21;;;;;;;2.83;1.15;;;24.30;99.90;;;;;;4058354;29;20271;-79
2022/07/15 00:06:23;;;;;;;2.63;1.35;;;24.30;99.90;;;;;;4065168;29;20268;-79
2022/07/15 00:08:27;;;;;;;3.10;1.67;;;24.40;99.90;;;;;;4068801;29;20217;-79
2022/07/15 00:10:29;;;;;;;3.15;1.60;;;24.30;99.90;;;;;;4065903;29;20288;-79
2022/07/15 00:12:31;;;;;;;3.00;1.38;;;24.30;99.90;;;;;;4058412;29;20244;-79
2022/07/15 00:14:35;;;;;;;1.98;1.30;;;24.30;99.90;;;;;;4060699;29;20265;-79
2022/07/15 00:16:38;;;;;;;2.45;1.25;;;24.30;99.90;;;;;;4058686;29;20729;-80
2022/07/15 00:18:40;;;;;;;3.35;1.48;;;24.30;99.90;;;;;;4051927;29;20266;-80
2022/07/15 00:20:42;;;;;;;2.78;1.20;;;24.20;99.90;;;;;;4053723;29;20229;-79
2022/07/15 00:22:46;;;;;;;3.67;1.40;;;24.30;99.90;;;;;;4063353;29;20264;-79
2022/07/15 00:24:48;;;;;;;2.58;1.48;;;24.30;99.90;;;;;;4059487;29;20224;-79
2022/07/15 00:26:51;;;;;;;3.80;1.30;;;24.30;99.90;;;;;;4059253;29;20224;-79
2022/07/15 00:28:53;;;;;;;2.83;1.20;;;24.30;99.90;;;;;;4050636;29;20269;-79
2022/07/15 00:30:57;;;;;;;1.98;1.40;;;24.30;99.90;;;;;;4052978;29;20737;-79
2022/07/15 00:33:00;;;;;;;3.75;1.35;;;24.20;99.90;;;;;;4054365;29;20217;-79
2022/07/15 00:35:02;;;;;;;2.63;1.40;;;24.30;99.90;;;;;;4062956;29;20256;-79
2022/07/15 00:37:04;;;;;;;4.13;1.60;;;24.20;99.90;;;;;;4050384;29;20221;-79
2022/07/15 00:39:07;;;;;;;3.13;1.40;;;24.30;99.90;;;;;;4057394;29;20236;-79
2022/07/15 00:41:09;;;;;;;3.08;1.60;;;24.20;99.90;;;;;;4061034;29;20209;-79
2022/07/15 00:43:12;;;;;;;3.25;1.13;;;24.30;99.90;;;;;;4057725;29;20217;-79
2022/07/15 00:45:16;;;;;;;3.38;1.50;;;24.20;99.90;;;;;;4063123;29;20267;-79
2022/07/15 00:47:20;;;;;;;3.00;1.35;;;24.30;99.90;;;;;;4060457;29;20264;-79
2022/07/15 00:49:23;;;;;;;2.35;1.30;;;24.20;99.90;;;;;;4061504;29;20224;-78
2022/07/15 00:51:26;;;;;;;3.15;1.40;;;24.20;99.90;;;;;;4057655;29;20292;-79
2022/07/15 00:53:30;;;;;;;3.00;1.50;;;24.20;99.90;;;;;;4060143;29;20269;-79
2022/07/15 00:55:38;;;;;;;2.75;1.40;;;24.20;99.90;;;;;;4058122;29;20224;-79
2022/07/15 00:57:44;;;;;;;4.25;1.73;;;24.20;99.90;;;;;;4053297;29;20245;-79
2022/07/15 00:59:48;;;;;;;2.25;1.23;;;24.20;99.90;;;;;;4061579;29;20272;-79
2022/07/15 01:01:52;;;;;;;3.83;1.50;;;24.20;99.90;;;;;;4068187;29;20263;-79
2022/07/15 01:03:57;;;;;;;3.28;1.60;;;24.20;99.90;;;;;;4056725;29;20213;-79
2022/07/15 01:06:00;;;;;;;2.83;1.48;;;24.20;99.90;;;;;;4051354;29;20217;-79
2022/07/15 01:08:02;;;;;;;2.92;1.40;;;24.20;99.90;;;;;;4056552;29;20257;-79
2022/07/15 01:10:05;;;;;;;2.50;1.40;;;24.20;99.90;;;;;;4055024;29;20213;-79
2022/07/15 01:12:07;;;;;;;2.72;1.52;;;24.20;99.90;;;;;;4061975;29;20237;-79
2022/07/15 01:14:10;;;;;;;2.38;1.50;;;24.20;99.90;;;;;;4060713;29;20273;-79
2022/07/15 01:16:12;;;;;;;2.70;1.65;;;24.20;99.90;;;;;;4061310;29;20224;-79
2022/07/15 01:18:14;;;;;;;3.50;1.50;;;24.20;99.90;;;;;;4063693;29;20278;-79
2022/07/15 01:20:18;;;;;;;3.75;1.73;;;24.20;99.90;;;;;;4060052;29;20228;-79
2022/07/15 01:22:22;;;;;;;2.63;1.52;;;24.20;99.90;;;;;;4052996;29;20269;-79
2022/07/15 01:24:24;;;;;;;2.63;1.50;;;24.20;99.90;;;;;;4052823;29;20276;-79
2022/07/15 01:26:27;;;;;;;1.88;1.38;;;24.10;99.90;;;;;;4052509;29;20310;-79
2022/07/15 01:28:29;;;;;;;2.67;1.35;;;24.10;99.90;;;;;;4052659;29;20796;-79
2022/07/15 01:30:31;;;;;;;2.78;1.30;;;24.20;99.90;;;;;;4066140;29;20261;-79
2022/07/15 01:32:34;;;;;;;3.17;1.60;;;24.10;99.90;;;;;;4049860;29;20288;-79
2022/07/15 01:34:36;;;;;;;3.88;1.90;;;24.10;99.90;;;;;;4054425;29;20732;-79
2022/07/15 01:36:39;;;;;;;3.95;1.60;;;24.10;99.90;;;;;;4054515;29;20224;-79
2022/07/15 01:38:42;;;;;;;2.42;1.23;;;24.10;99.90;;;;;;4057427;29;20276;-79
2022/07/15 01:41:03;;;;;;;3.00;1.52;;;24.10;99.90;;;;;;4058560;29;20216;-79
2022/07/15 01:43:06;;;;;;;3.75;1.30;;;24.10;99.90;;;;;;4063671;29;20705;-79
2022/07/15 01:45:09;;;;;;;3.75;2.00;;;24.10;99.90;;;;;;4057284;29;21163;-79
2022/07/15 01:47:11;;;;;;;3.22;1.30;;;24.10;99.90;;;;;;4060537;29;20284;-79
2022/07/15 01:49:22;;;;;;;3.55;1.40;;;24.10;99.90;;;;;;4052741;29;20229;-79
2022/07/15 01:51:24;;;;;;;2.97;1.30;;;24.10;99.90;;;;;;4062623;29;20723;-79
2022/07/15 01:53:27;;;;;;;3.20;1.70;;;24.10;99.90;;;;;;4055539;29;20285;-79
2022/07/15 01:55:31;;;;;;;3.28;1.70;;;24.10;99.90;;;;;;4053808;29;20614;-80
2022/07/15 01:57:34;;;;;;;2.95;1.52;;;24.10;99.90;;;;;;4063875;29;20245;-78
2022/07/15 01:59:36;;;;;;;3.75;1.60;;;24.10;99.90;;;;;;4064011;29;20225;-78
2022/07/15 02:01:38;;;;;;;3.25;1.40;;;24.10;99.90;;;;;;4061426;29;20225;-79
2022/07/15 02:03:40;;;;;;;4.32;1.80;;;24.10;99.90;;;;;;4061498;29;20264;-79
2022/07/15 02:05:43;;;;;;;3.17;1.48;;;24.10;99.90;;;;;;4060407;29;20569;-79
2022/07/15 02:07:45;;;;;;;2.20;1.33;;;24.10;99.90;;;;;;4057049;29;20709;-80
2022/07/15 02:09:48;;;;;;;2.85;1.38;;;24.00;99.90;;;;;;4062967;29;20216;-80
2022/07/15 02:11:51;;;;;;;3.20;1.58;;;24.00;99.90;;;;;;4059782;29;20268;-79
2022/07/15 02:13:58;;;;;;;4.05;1.45;;;24.00;99.90;;;;;;4059590;29;20217;-79
2022/07/15 02:16:00;;;;;;;3.22;1.60;;;24.10;99.90;;;;;;4057070;29;20284;-79
2022/07/15 02:18:02;;;;;;;4.00;1.45;;;24.10;99.90;;;;;;4056236;29;20265;-79
2022/07/15 02:20:06;;;;;;;3.47;1.25;;;24.00;99.90;;;;;;4057161;29;20629;-79
2022/07/15 02:22:08;;;;;;;4.20;1.27;;;24.00;99.90;;;;;;4059628;29;20621;-79
2022/07/15 02:24:10;;;;;;;3.25;1.52;;;24.00;99.90;;;;;;4058027;29;20275;-79
2022/07/15 02:26:13;;;;;;;4.47;1.77;;;24.00;99.90;;;;;;4058997;29;20276;-80
2022/07/15 02:28:17;;;;;;;3.60;1.48;;;24.00;99.90;;;;;;4057404;29;20228;-79
2022/07/15 02:30:19;;;;;;;3.90;1.40;;;24.00;99.90;;;;;;4054079;29;20225;-79
2022/07/15 02:32:22;;;;;;;4.00;1.75;;;24.00;99.90;;;;;;4056136;29;20237;-79
2022/07/15 02:34:25;;;;;;;2.17;1.52;;;24.00;99.90;;;;;;4059457;29;20221;-79
2022/07/15 02:36:27;;;;;;;2.45;1.42;;;24.00;99.90;;;;;;4054914;29;20217;-79
2022/07/15 02:38:29;;;;;;;3.80;1.40;;;24.00;99.90;;;;;;4058184;29;20225;-79
2022/07/15 02:40:32;;;;;;;3.25;1.60;;;23.90;99.90;;;;;;4060821;29;20976;-79
2022/07/15 02:42:34;;;;;;;2.72;1.30;;;24.00;99.90;;;;;;4059435;29;20225;-79
2022/07/15 02:44:38;;;;;;;3.72;1.33;;;23.90;99.90;;;;;;4058743;29;20280;-79
2022/07/15 02:46:40;;;;;;;4.18;1.40;;;23.90;99.90;;;;;;4059902;29;20282;-79
2022/07/15 02:48:42;;;;;;;3.15;1.50;;;23.90;99.90;;;;;;4061389;29;20229;-79
2022/07/15 02:50:46;;;;;;;3.20;1.60;;;23.90;99.90;;;;;;4058740;29;20236;-79
2022/07/15 02:52:48;;;;;;;2.63;1.40;;;23.90;99.90;;;;;;4059550;29;20236;-79
2022/07/15 02:54:51;;;;;;;3.25;1.75;;;24.00;99.90;;;;;;4063129;29;20212;-80
2022/07/15 02:56:53;;;;;;;3.15;1.27;;;23.90;99.90;;;;;;4060859;29;20224;-80
2022/07/15 02:58:55;;;;;;;2.50;1.38;;;23.90;99.90;;;;;;4061231;29;20284;-79
2022/07/15 03:01:00;;;;;;;2.25;1.45;;;23.90;99.90;;;;;;4063492;29;20665;-79
2022/07/15 03:03:02;;;;;;;3.50;1.50;;;23.90;99.90;;;;;;4060344;29;20213;-79
2022/07/15 03:05:05;;;;;;;3.65;1.50;;;23.90;99.90;;;;;;4063199;29;20643;-79
2022/07/15 03:07:08;;;;;;;3.60;1.65;;;23.90;99.90;;;;;;4057757;29;20229;-79
2022/07/15 03:09:10;;;;;;;2.40;1.60;;;23.90;99.90;;;;;;4058579;29;20229;-79
2022/07/15 03:11:13;;;;;;;4.30;1.75;;;23.90;99.90;;;;;;4060556;29;20289;-81
2022/07/15 03:13:15;;;;;;;2.47;1.30;;;23.90;99.90;;;;;;4058394;29;20244;-79
2022/07/15 03:15:18;;;;;;;3.28;1.52;;;23.90;99.90;;;;;;4062092;29;20272;-79
2022/07/15 03:17:21;;;;;;;2.85;1.40;;;23.90;99.90;;;;;;4056922;29;20229;-79
2022/07/15 03:19:24;;;;;;;2.67;1.20;;;23.90;99.90;;;;;;4060359;29;20307;-79
2022/07/15 03:21:26;;;;;;;3.08;1.55;;;23.90;99.90;;;;;;4063834;29;20595;-79
2022/07/15 03:23:29;;;;;;;2.70;1.30;;;23.90;99.90;;;;;;4062012;29;20605;-79
2022/07/15 03:25:31;;;;;;;2.55;1.48;;;23.90;99.90;;;;;;4060222;29;20220;-79
2022/07/15 03:27:33;;;;;;;3.47;1.60;;;23.80;99.90;;;;;;4058090;29;20289;-79
2022/07/15 03:29:36;;;;;;;4.13;1.60;;;23.90;99.90;;;;;;4059722;29;20225;-79
2022/07/15 03:31:38;;;;;;;3.40;1.45;;;23.90;99.90;;;;;;4056900;29;20224;-79
2022/07/15 03:33:42;;;;;;;3.70;1.58;;;23.80;99.90;;;;;;4059582;29;20776;-79
2022/07/15 03:35:44;;;;;;;2.92;1.50;;;23.80;99.90;;;;;;4058515;29;20269;-79
2022/07/15 03:37:47;;;;;;;2.60;1.40;;;23.90;99.90;;;;;;4059859;29;20221;-79
2022/07/15 03:39:49;;;;;;;2.80;1.48;;;23.80;99.90;;;;;;4061866;29;20221;-79
2022/07/15 03:41:52;;;;;;;3.38;1.40;;;23.90;99.90;;;;;;4060680;29;20665;-80
2022/07/15 03:43:54;;;;;;;5.15;1.77;;;23.90;99.90;;;;;;4059614;29;20248;-79
2022/07/15 03:45:56;;;;;;;3.17;1.33;;;23.90;99.90;;;;;;4062784;29;20216;-79
2022/07/15 03:47:59;;;;;;;4.47;1.70;;;23.90;99.90;;;;;;4052723;29;20991;-79
2022/07/15 03:50:02;;;;;;;3.08;1.58;;;23.80;99.90;;;;;;4057686;29;20237;-79
2022/07/15 03:52:05;;;;;;;3.80;1.50;;;23.80;99.90;;;;;;4061704;29;20212;-79
2022/07/15 03:54:07;;;;;;;3.25;1.50;;;23.80;99.90;;;;;;4062564;29;20284;-79
2022/07/15 03:56:10;;;;;;;2.35;1.35;;;23.80;99.90;;;;;;4058899;29;20280;-79
2022/07/15 03:58:12;;;;;;;3.42;1.38;;;23.80;99.90;;;;;;4063330;29;20221;-79
2022/07/15 04:00:15;;;;;;;3.97;1.42;;;23.80;99.90;;;;;;4060989;29;20272;-79
2022/07/15 04:02:17;;;;;;;2.90;1.50;;;23.80;99.90;;;;;;4056205;29;20273;-79
2022/07/15 04:04:20;;;;;;;2.28;1.50;;;23.80;99.90;;;;;;4056526;29;20217;-79
2022/07/15 04:06:24;;;;;;;3.03;1.50;;;23.80;99.90;;;;;;4054067;29;20261;-79
2022/07/15 04:08:27;;;;;;;3.97;1.35;;;23.80;99.90;;;;;;4060420;29;20253;-79
2022/07/15 04:10:29;;;;;;;3.67;1.77;;;23.80;99.90;;;;;;4056707;29;20228;-79
2022/07/15 04:12:31;;;;;;;4.10;1.67;;;23.80;99.90;;;;;;4056636;29;20216;-79
2022/07/15 04:14:33;;;;;;;1.83;1.35;;;23.80;99.90;;;;;;4058102;29;20237;-79
2022/07/15 04:16:36;;;;;;;3.50;1.48;;;23.80;99.90;;;;;;4056305;29;20217;-79
2022/07/15 04:18:38;;;;;;;4.13;1.58;;;23.80;99.90;;;;;;4059119;29;20221;-79
2022/07/15 04:20:40;;;;;;;3.85;1.58;;;23.80;99.90;;;;;;4053763;29;20269;-80
2022/07/15 04:22:46;;;;;;;3.03;1.40;;;23.80;99.90;;;;;;4056855;29;21003;-79
2022/07/15 04:24:49;;;;;;;3.85;1.45;;;23.80;99.90;;;;;;4058685;29;20972;-79
2022/07/15 04:26:51;;;;;;;4.30;1.65;;;23.80;99.90;;;;;;4061616;29;20267;-79
2022/07/15 04:28:54;;;;;;;2.53;1.48;;;23.80;99.90;;;;;;4052252;29;20293;-79
2022/07/15 04:30:56;;;;;;;2.88;1.40;;;23.70;99.90;;;;;;4059306;29;20221;-79
2022/07/15 04:32:58;;;;;;;3.55;1.80;;;23.80;99.90;;;;;;4061954;29;20212;-79
2022/07/15 04:35:01;;;;;;;2.10;1.40;;;23.80;99.90;;;;;;4055055;29;20627;-79
2022/07/15 04:37:03;;;;;;;3.13;1.70;;;23.80;99.90;;;;;;4064207;29;20956;-79
2022/07/15 04:39:07;;;;;;;2.97;1.33;;;23.80;99.90;;;;;;4060993;29;20276;-79
2022/07/15 04:41:09;;;;;;;2.88;1.42;;;23.80;99.90;;;;;;4059505;29;20221;-79
2022/07/15 04:43:12;;;;;;;3.63;1.70;;;23.80;99.90;;;;;;4062020;29;20224;-79
2022/07/15 04:45:14;;;;;;;2.47;1.40;;;23.80;99.90;;;;;;4062033;29;20225;-79
2022/07/15 04:47:17;;;;;;;2.25;1.35;;;23.80;99.90;;;;;;4054581;29;20228;-79
2022/07/15 04:51:39;;;;;;;1.77;1.25;;;23.80;99.90;;;;;;4060161;29;20212;-79
2022/07/15 04:53:41;;;;;;;2.53;1.40;;;23.80;99.90;;;;;;4059540;29;20237;-79
2022/07/15 04:55:45;;;;;;;4.70;1.40;;;23.80;99.90;;;;;;4057453;29;20273;-79
2022/07/15 04:57:48;;;;;;;3.00;1.30;;;23.80;99.90;;;;;;4054518;29;20272;-79
2022/07/15 04:59:50;;;;;;;3.80;1.67;;;23.80;99.90;;;;;;4060515;29;20224;-79
2022/07/15 05:01:53;;;;;;;2.58;1.30;;;23.80;99.90;;;;;;4060939;29;20220;-79
2022/07/15 05:03:55;;;;;;;3.45;1.58;;;23.80;99.90;;;;;;4059512;29;20257;-80
2022/07/15 05:05:57;;;;;;;3.08;1.60;;;23.80;99.90;;;;;;4057803;29;20276;-80
2022/07/15 05:08:00;;;;;;;2.50;1.38;;;23.80;99.90;;;;;;4055603;29;20265;-80
2022/07/15 05:10:02;;;;;;;2.95;1.60;;;23.80;99.90;;;;;;4057834;29;20220;-79
2022/07/15 05:12:06;;;;;;;2.88;1.50;;;23.80;99.90;;;;;;4055401;29;20273;-79
2022/07/15 05:14:08;;;;;;;4.95;1.50;;;23.80;99.90;;;;;;4059680;29;20256;-79
2022/07/15 05:16:11;;;;;;;3.83;1.50;;;23.80;99.90;;;;;;4060538;29;20216;-79
2022/07/15 05:18:13;;;;;;;2.38;1.23;;;23.80;99.90;;;;;;4060118;29;20280;-79
2022/07/15 05:20:16;;;;;;;3.00;1.40;;;23.80;99.90;;;;;;4057710;29;20252;-79
2022/07/15 05:22:19;;;;;;;4.10;1.50;;;23.80;99.90;;;;;;4054631;29;20801;-79
2022/07/15 05:24:21;;;;;;;2.35;1.50;;;23.80;99.90;;;;;;4057988;29;20620;-79
2022/07/15 05:26:23;;;;;;;1.80;1.40;;;23.80;99.90;;;;;;4064372;29;20657;-78
2022/07/15 05:28:27;;;;;;;3.33;1.42;;;23.80;99.90;;;;;;4063454;29;20710;-79
2022/07/15 05:30:29;;;;;;;3.38;1.65;;;23.80;99.90;;;;;;4066904;29;20253;-79
2022/07/15 05:32:31;;;;;;;2.88;1.40;;;23.80;99.90;;;;;;4064175;29;20212;-79
2022/07/15 05:34:34;;;;;;;3.28;1.48;;;23.80;99.90;;;;;;4058547;29;20240;-79
2022/07/15 05:36:36;;;;;;;3.08;1.40;;;23.80;99.90;;;;;;4061124;29;20297;-80
2022/07/15 05:38:39;;;;;;;2.38;1.50;;;23.80;99.90;;;;;;4055990;29;20224;-79
2022/07/15 05:40:41;;;;;;;3.28;1.30;;;23.80;99.90;;;;;;4060607;29;20277;-79
2022/07/15 05:42:43;;;;;;;3.22;1.48;;;23.80;99.90;;;;;;4056695;29;20297;-79
2022/07/15 05:44:47;;;;;;;3.17;1.60;;;23.80;99.90;;;;;;4058235;29;20272;-79
2022/07/15 05:46:50;;;;;;;2.88;1.40;;;23.80;99.90;;;;;;4054902;29;20277;-79
2022/07/15 05:48:53;;;;;;;3.05;1.42;;;23.80;99.90;;;;;;4058329;29;20224;-79
2022/07/15 05:50:55;;;;;;;3.42;1.35;;;23.80;99.90;;;;;;4060696;29;20244;-79
2022/07/15 05:52:57;;;;;;;2.75;1.45;;;23.80;99.90;;;;;;4060362;29;20217;-79
2022/07/15 05:55:00;;;;;;;3.25;1.50;;;23.80;99.90;;;;;;4060276;29;20240;-79
2022/07/15 05:57:03;;;;;;;3.92;1.70;;;23.80;99.90;;;;;;4058136;29;20225;-79
2022/07/15 05:59:05;;;;;;;3.13;1.52;;;23.80;99.90;;;;;;4054624;29;20212;-79
2022/07/15 06:01:09;;;;;;;3.17;1.42;;;23.80;99.90;;;;;;4058661;29;20229;-79
2022/07/15 06:03:11;;;;;;;3.15;1.48;;;23.80;99.90;;;;;;4057946;29;20284;-79
2022/07/15 06:05:14;;;;;;;3.35;1.30;;;23.80;99.90;;;;;;4060602;29;21144;-79
2022/07/15 06:07:16;;;;;;;2.53;1.40;;;23.80;99.90;;;;;;4058712;29;20276;-79
2022/07/15 06:09:18;;;;;;;2.67;1.20;;;23.80;99.90;;;;;;4057641;29;20235;-79
2022/07/15 06:11:20;;;;;;;2.55;1.20;;;23.80;99.90;;;;;;4056637;29;20287;-79
2022/07/15 06:13:23;;;;;;;3.15;1.50;;;23.80;99.90;;;;;;4058515;29;21056;-79
2022/07/15 06:15:25;;;;;;;3.53;1.50;;;23.80;99.90;;;;;;4059902;29;20300;-79
2022/07/15 06:17:30;;;;;;;3.25;1.48;;;23.80;99.90;;;;;;4061263;29;20738;-79
2022/07/15 06:19:32;;;;;;;4.20;1.50;;;23.80;99.90;;;;;;4064980;29;20658;-79
2022/07/15 06:21:34;;;;;;;4.03;1.60;;;23.70;99.90;;;;;;4060862;29;20217;-79
2022/07/15 06:23:37;;;;;;;2.83;1.50;;;23.70;99.90;;;;;;4061349;29;20220;-79
2022/07/15 06:25:39;;;;;;;2.42;1.30;;;23.80;99.90;;;;;;4062002;29;20721;-79
2022/07/15 06:27:42;;;;;;;3.67;1.20;;;23.80;99.90;;;;;;4059630;29;20269;-79
2022/07/15 06:29:44;;;;;;;3.85;1.50;;;23.70;99.90;;;;;;4061450;29;20276;-79
2022/07/15 06:31:46;;;;;;;1.90;1.40;;;23.80;99.90;;;;;;4062575;29;20264;-79
2022/07/15 06:33:50;;;;;;;2.28;1.38;;;23.70;99.90;;;;;;4064135;29;20224;-79
2022/07/15 06:35:52;;;;;;;2.50;1.30;;;23.70;99.90;;;;;;4060801;29;20237;-79
2022/07/15 06:37:55;;;;;;;3.20;1.60;;;23.70;99.90;;;;;;4063196;29;20276;-79
2022/07/15 06:39:57;;;;;;;3.20;1.45;;;23.80;99.90;;;;;;4063890;29;20628;-81
2022/07/15 06:42:00;;;;;;;2.03;1.38;;;23.80;99.90;;;;;;4059495;29;20622;-79
2022/07/15 06:44:05;;;;;;;2.65;1.30;;;23.80;99.90;;;;;;4062110;29;20268;-80
2022/07/15 06:46:08;;;;;;;2.90;1.40;;;23.80;99.90;;;;;;4057320;29;20261;-79
2022/07/15 06:48:10;;;;;;;4.10;1.60;;;23.80;99.90;;;;;;4058610;29;20538;-79
2022/07/15 06:50:14;;;;;;;2.28;1.17;;;23.80;99.90;;;;;;4062712;29;20252;-79
2022/07/15 06:52:16;;;;;;;19.90;2.90;;;23.80;99.90;;;;;;4059265;29;20264;-78
2022/07/15 06:54:19;;;;;;;6.88;1.90;;;23.80;99.90;;;;;;4060793;29;20279;-82
2022/07/15 06:56:21;;;;;;;8.05;1.80;;;23.10;99.90;;;;;;4058220;29;20216;-82
2022/07/15 06:58:23;;;;;;;4.70;1.38;;;22.50;99.90;;;;;;4060330;29;20228;-81
2022/07/15 07:00:26;;;;;;;5.63;1.67;;;21.90;99.90;;;;;;4060762;29;20264;-83
2022/07/15 07:02:28;;;;;;;6.65;1.73;;;21.50;99.90;;;;;;4063146;29;20793;-83
2022/07/15 07:04:31;;;;;;;5.40;1.65;;;20.90;99.90;;;;;;4062205;29;20284;-83
2022/07/15 07:06:35;;;;;;;5.88;1.65;;;20.70;99.90;;;;;;4061601;29;20277;-83
2022/07/15 07:08:37;;;;;;;5.25;1.20;;;20.60;99.90;;;;;;4061586;29;20216;-83
2022/07/15 07:10:39;;;;;;;6.88;1.60;;;20.60;99.90;;;;;;4062193;29;20217;-83
2022/07/15 07:12:42;;;;;;;6.18;1.85;;;20.50;99.90;;;;;;4056155;29;20273;-83
2022/07/15 07:14:44;;;;;;;5.28;1.50;;;20.30;99.90;;;;;;4055855;29;20220;-83
2022/07/15 07:16:46;;;;;;;6.45;1.55;;;20.30;99.90;;;;;;4055597;29;20627;-82
2022/07/15 07:18:50;;;;;;;7.35;1.90;;;20.10;99.90;;;;;;4059049;29;20221;-81
2022/07/15 07:20:52;;;;;;;7.20;1.60;;;19.90;99.90;;;;;;4061293;29;20245;-80
2022/07/15 07:22:57;;;;;;;6.93;2.20;;;19.80;99.90;;;;;;4060276;29;20269;-82
2022/07/15 07:24:59;;;;;;;4.78;1.98;;;20.00;99.90;;;;;;4055697;29;20208;-82
2022/07/15 07:27:02;;;;;;;8.68;2.20;;;20.00;99.90;;;;;;4059024;29;20249;-81
2022/07/15 07:29:04;;;;;;;9.07;1.70;;;20.10;99.90;;;;;;4063722;29;20244;-81
2022/07/15 07:31:07;;;;;;;3.42;1.50;;;20.20;99.90;;;;;;4067481;29;20220;-83
2022/07/15 07:33:10;;;;;;;4.05;1.63;;;20.10;99.90;;;;;;4064468;29;20225;-82
2022/07/15 07:35:12;;;;;;;6.43;1.40;;;20.00;99.90;;;;;;4055006;29;20241;-82
2022/07/15 07:37:15;;;;;;;6.95;1.90;;;20.10;99.90;;;;;;4056280;29;20289;-82
2022/07/15 07:39:19;;;;;;;7.75;1.65;;;20.10;99.90;;;;;;4061807;29;20631;-82
2022/07/15 07:41:21;;;;;;;4.88;1.60;;;20.10;99.90;;;;;;4054630;29;20745;-81
2022/07/15 07:43:24;;;;;;;7.85;1.98;;;20.00;99.90;;;;;;4063036;29;20909;-81
2022/07/15 07:45:28;;;;;;;4.68;1.50;;;20.00;99.90;;;;;;4056393;29;20655;-82
2022/07/15 07:47:31;;;;;;;4.38;1.65;;;19.90;99.90;;;;;;4061095;29;20220;-80
2022/07/15 07:49:33;;;;;;;6.00;2.03;;;20.00;99.90;;;;;;4058680;29;20723;-82
2022/07/15 07:51:36;;;;;;;7.88;2.38;;;20.10;99.90;;;;;;4062662;29;20639;-79
2022/07/15 07:53:38;;;;;;;8.80;2.20;;;20.10;99.90;;;;;;4062013;29;20228;-81
2022/07/15 07:55:42;;;;;;;4.63;1.88;;;20.10;99.90;;;;;;4064265;29;20236;-81
2022/07/15 07:57:48;;;;;;;6.47;1.70;;;20.20;99.90;;;;;;4058625;29;20284;-81
2022/07/15 07:59:50;;;;;;;5.30;1.95;;;20.10;99.90;;;;;;4059571;29;20260;-80
2022/07/15 08:01:52;;;;;;;3.65;1.75;;;20.00;99.90;;;;;;4057442;29;20217;-81
2022/07/15 08:03:55;;;;;;;5.75;1.60;;;19.70;99.90;;;;;;4058771;29;20990;-83
2022/07/15 08:05:58;;;;;;;9.70;2.00;;;19.50;99.90;;;;;;4062574;29;20295;-82
2022/07/15 08:08:22;;;;;;;4.63;1.75;;;19.40;99.90;;;;;;4062715;29;20221;-84
2022/07/15 08:10:25;;;;;;;4.90;1.30;;;19.50;99.90;;;;;;4052086;29;20467;-84
2022/07/15 08:12:28;;;;;;;5.15;1.70;;;19.50;99.90;;;;;;4056264;29;20281;-84
2022/07/15 08:14:31;;;;;;;6.28;1.73;;;19.50;99.90;;;;;;4058093;29;20277;-83
2022/07/15 08:16:34;;;;;;;6.57;1.80;;;19.40;99.90;;;;;;4056110;29;20285;-82
2022/07/15 08:18:36;;;;;;;7.97;1.98;;;19.30;99.90;;;;;;4063591;29;20644;-84
2022/07/15 08:20:39;;;;;;;4.93;1.75;;;19.30;99.90;;;;;;4062383;29;20224;-83
2022/07/15 08:22:41;;;;;;;5.28;1.75;;;19.30;99.90;;;;;;4058621;29;20220;-82
2022/07/15 08:24:44;;;;;;;5.25;1.45;;;19.20;99.90;;;;;;4061912;29;20217;-84
2022/07/15 08:26:46;;;;;;;7.15;1.77;;;19.30;99.90;;;;;;4065492;29;20631;-83
2022/07/15 08:28:50;;;;;;;5.00;1.65;;;19.30;99.90;;;;;;4058927;29;20268;-82
2022/07/15 08:30:52;;;;;;;10.25;1.85;;;19.40;99.90;;;;;;4059562;29;20288;-83
2022/07/15 08:32:55;;;;;;;7.25;1.60;;;19.50;99.90;;;;;;4062522;29;20276;-82
2022/07/15 08:34:57;;;;;;;5.80;1.80;;;19.40;99.90;;;;;;4055062;29;20213;-81
2022/07/15 08:36:59;;;;;;;6.43;1.70;;;19.60;99.90;;;;;;4058735;29;20233;-82
2022/07/15 08:39:02;;;;;;;6.57;1.50;;;19.60;99.90;;;;;;4061127;29;20224;-82
2022/07/15 08:41:05;;;;;;;4.60;1.65;;;20.00;99.90;;;;;;4059472;29;20710;-84
2022/07/15 08:43:10;;;;;;;7.00;1.80;;;20.10;99.90;;;;;;4062801;29;20220;-83
2022/07/15 08:45:15;;;;;;;2.80;1.30;;;20.20;99.90;;;;;;4062132;29;20217;-84
2022/07/15 08:47:18;;;;;;;7.90;1.70;;;20.20;99.90;;;;;;4059057;29;20212;-82
2022/07/15 08:49:22;;;;;;;7.28;2.05;;;20.30;99.90;;;;;;4063711;29;20228;-85
2022/07/15 08:51:25;;;;;;;5.53;1.60;;;20.40;99.90;;;;;;4056407;29;20281;-84
2022/07/15 08:53:30;;;;;;;5.05;1.48;;;20.40;99.90;;;;;;4059298;29;20610;-83
2022/07/15 08:55:33;;;;;;;4.45;1.60;;;20.60;99.90;;;;;;4059082;29;20220;-82
2022/07/15 08:57:35;;;;;;;7.38;1.75;;;20.60;99.90;;;;;;4058128;29;20858;-81
2022/07/15 08:59:38;;;;;;;4.05;1.52;;;20.60;99.90;;;;;;4063064;29;20641;-84
2022/07/15 09:01:48;;;;;;;6.40;1.83;;;20.70;99.90;;;;;;4059366;29;20272;-85
2022/07/15 09:03:50;;;;;;;4.15;1.52;;;20.60;99.90;;;;;;4061961;29;20220;-83
2022/07/15 09:05:53;;;;;;;5.88;1.65;;;20.70;99.90;;;;;;4055146;29;20930;-86
2022/07/15 09:07:58;;;;;;;3.50;1.70;;;20.60;99.90;;;;;;4047122;29;20269;-82
2022/07/15 09:10:00;;;;;;;4.90;1.70;;;20.70;99.90;;;;;;4060827;29;20272;-81
2022/07/15 09:12:05;;;;;;;8.15;1.98;;;20.70;99.90;;;;;;4057455;29;20213;-84
2022/07/15 09:14:14;;;;;;;5.30;1.70;;;20.80;99.90;;;;;;4056365;29;20229;-81
2022/07/15 09:16:21;;;;;;;6.20;1.70;;;20.90;99.90;;;;;;4057501;29;20316;-79
2022/07/15 09:18:26;;;;;;;4.93;1.30;;;20.80;99.90;;;;;;4053092;29;20285;-79
2022/07/15 09:20:29;;;;;;;6.90;1.42;;;20.90;99.90;;;;;;4058535;29;20255;-84
2022/07/15 09:22:33;;;;;;;3.65;1.50;;;20.90;99.90;;;;;;4054404;29;20221;-81
2022/07/15 09:24:36;;;;;;;4.55;1.58;;;21.10;99.90;;;;;;4044381;29;20221;-80
2022/07/15 09:26:38;;;;;;;6.68;1.70;;;21.00;99.90;;;;;;4059956;29;20263;-83
2022/07/15 09:28:44;;;;;;;6.03;1.40;;;21.10;99.90;;;;;;4063437;29;20212;-84
2022/07/15 09:37:57;;;;;;;4.72;1.55;;;21.10;99.90;;;;;;4056819;29;20217;-82
2022/07/15 09:40:00;;;;;;;6.72;1.60;;;21.20;99.90;;;;;;4063012;29;20212;-81
2022/07/15 09:42:08;;;;;;;3.90;1.60;;;21.30;99.90;;;;;;4058995;29;20276;-81
2022/07/15 09:44:12;;;;;;;6.63;1.38;;;21.10;99.90;;;;;;4066645;29;20295;-80
2022/07/15 09:46:15;;;;;;;5.15;1.42;;;20.90;99.90;;;;;;4060312;29;20275;-80
2022/07/15 09:48:17;;;;;;;4.00;1.60;;;21.00;99.90;;;;;;4052706;29;20276;-83
2022/07/15 09:50:35;;;;;;;2.78;1.27;;;21.10;99.90;;;;;;4058533;29;20948;-79
2022/07/15 09:52:47;;;;;;;5.45;1.52;;;21.20;99.90;;;;;;4060052;29;20228;-79
2022/07/15 09:54:51;;;;;;;3.42;1.35;;;21.30;99.90;;;;;;4059405;29;20557;-78
2022/07/15 09:56:54;;;;;;;7.75;1.40;;;21.40;99.90;;;;;;4063517;29;20248;-78
2022/07/15 09:58:56;;;;;;;4.03;1.60;;;21.20;99.90;;;;;;4058134;29;20228;-77
2022/07/15 10:00:59;;;;;;;3.83;1.38;;;21.20;99.90;;;;;;4063941;29;20680;-77
2022/07/15 10:03:02;;;;;;;3.80;1.40;;;21.40;99.90;;;;;;4064129;29;20216;-79
2022/07/15 10:05:05;;;;;;;3.85;1.30;;;21.40;99.90;;;;;;4070053;29;20221;-77
2022/07/15 10:07:11;;;;;;;7.45;1.40;;;21.60;99.90;;;;;;4062494;29;20276;-78
2022/07/15 10:09:13;;;;;;;4.95;1.50;;;21.80;99.90;;;;;;4064003;29;20277;-76
2022/07/15 10:11:16;;;;;;;5.20;1.65;;;21.80;99.90;;;;;;4058642;29;20375;-78
2022/07/15 10:13:41;;;;;;;2.88;1.60;;;21.60;99.90;;;;;;4059815;29;20229;-78
2022/07/15 10:15:54;;;;;;;4.35;1.10;;;21.70;99.90;;;;;;4048851;29;20264;-77
2022/07/15 10:18:09;;;;;;;3.03;1.35;;;21.80;99.90;;;;;;4065107;29;20236;-77
2022/07/15 10:20:38;;;;;;;2.67;1.48;;;21.80;99.90;;;;;;4056162;29;20216;-77
2022/07/15 10:22:56;;;;;;;4.47;1.85;;;21.60;99.90;;;;;;4062381;29;20225;-78
2022/07/15 10:25:12;;;;;;;3.92;1.40;;;21.50;99.90;;;;;;4063395;29;20931;-78
2022/07/15 10:27:41;;;;;;;4.43;1.67;;;21.50;99.90;;;;;;4064964;29;20224;-77
2022/07/15 10:29:44;;;;;;;3.65;1.42;;;21.50;99.90;;;;;;4057315;29;20697;-77
2022/07/15 10:31:56;;;;;;;4.38;1.52;;;21.50;99.90;;;;;;4064236;29;20279;-76
2022/07/15 10:34:19;;;;;;;3.42;1.50;;;21.60;99.90;;;;;;4062771;29;20275;-76
2022/07/15 10:36:21;;;;;;;3.72;1.33;;;21.60;99.90;;;;;;4064752;29;20225;-76
2022/07/15 10:38:28;;;;;;;6.35;1.80;;;21.80;99.90;;;;;;4065794;29;20228;-78
2022/07/15 10:40:56;;;;;;;4.18;1.20;;;21.80;99.90;;;;;;4050518;29;20220;-77
2022/07/15 10:43:01;;;;;;;5.22;1.65;;;21.90;99.90;;;;;;4040992;29;20285;-80
2022/07/15 10:45:07;;;;;;;3.70;1.70;;;21.90;99.90;;;;;;4049075;29;20232;-79
2022/07/15 10:47:20;;;;;;;3.67;1.10;;;22.00;99.90;;;;;;4060943;29;20217;-77
2022/07/15 10:49:30;;;;;;;5.35;1.42;;;22.20;99.90;;;;;;4065066;29;20280;-79
2022/07/15 10:51:53;;;;;;;4.78;1.30;;;22.30;99.90;;;;;;4060778;29;20212;-77
2022/07/15 10:53:57;;;;;;;3.83;1.10;;;22.00;99.70;;;;;;4052207;29;20216;-78